createdAt,value
2019-05-11T00:01:34.321Z,1.63
2019-05-11T00:04:03.765Z,2.20
2019-05-11T00:06:32.717Z,1.67
2019-05-11T00:09:01.964Z,1.70
2019-05-11T00:11:30.907Z,1.70
2019-05-11T00:13:59.980Z,1.60
2019-05-11T00:16:28.930Z,1.60
2019-05-11T00:18:57.996Z,1.77
2019-05-11T00:21:27.394Z,1.47
2019-05-11T00:23:56.431Z,1.67
2019-05-11T00:26:25.396Z,1.60
2019-05-11T00:28:54.293Z,1.50
2019-05-11T00:31:23.334Z,1.70
2019-05-11T00:33:52.300Z,1.67
2019-05-11T00:36:21.253Z,1.70
2019-05-11T00:38:50.901Z,1.50
2019-05-11T00:41:20.164Z,1.60
2019-05-11T00:43:49.124Z,1.60
2019-05-11T00:46:18.004Z,1.47
2019-05-11T00:48:47.284Z,1.90
2019-05-11T00:51:16.165Z,1.40
2019-05-11T00:53:45.133Z,1.67
2019-05-11T00:56:14.013Z,1.70
2019-05-11T00:58:42.980Z,1.60
2019-05-11T01:01:11.940Z,1.57
2019-05-11T01:03:41.148Z,1.53
2019-05-11T01:06:10.147Z,1.80
2019-05-11T01:08:39.079Z,1.50
2019-05-11T01:11:08.465Z,1.50
2019-05-11T01:13:37.733Z,1.63
2019-05-11T01:16:07.034Z,1.40
2019-05-11T01:18:36.002Z,1.60
2019-05-11T01:21:05.052Z,1.70
2019-05-11T01:23:33.931Z,1.60
2019-05-11T01:26:03.316Z,1.50
2019-05-11T01:28:32.622Z,1.70
2019-05-11T01:31:01.668Z,1.20
2019-05-11T01:33:30.695Z,1.27
2019-05-11T01:35:59.672Z,1.90
2019-05-11T01:38:28.624Z,1.40
2019-05-11T01:40:59.082Z,1.53
2019-05-11T01:43:28.521Z,1.47
2019-05-11T01:45:58.446Z,1.50
2019-05-11T01:48:27.740Z,1.60
2019-05-11T01:50:57.062Z,1.40
2019-05-11T01:53:26.113Z,1.23
2019-05-11T01:55:55.116Z,1.40
2019-05-11T01:58:23.941Z,1.50
2019-05-11T02:00:52.873Z,1.10
2019-05-11T02:03:22.136Z,1.43
2019-05-11T02:05:51.783Z,1.70
2019-05-11T02:08:20.860Z,1.77
2019-05-11T02:10:49.716Z,1.70
2019-05-11T02:13:18.657Z,1.50
2019-05-11T02:15:47.529Z,1.60
2019-05-11T02:18:16.785Z,1.60
2019-05-11T02:20:45.641Z,1.70
2019-05-11T02:23:14.485Z,1.33
2019-05-11T02:25:43.629Z,1.60
2019-05-11T02:28:12.519Z,1.67
2019-05-11T02:30:41.381Z,1.40
2019-05-11T02:33:10.213Z,1.90
2019-05-11T02:35:39.225Z,1.60
2019-05-11T02:38:08.146Z,1.80
2019-05-11T02:40:37.065Z,1.80
2019-05-11T02:43:06.349Z,1.50
2019-05-11T02:45:41.820Z,1.53
2019-05-11T02:48:11.643Z,1.87
2019-05-11T02:50:41.052Z,1.70
2019-05-11T02:53:10.379Z,1.47
2019-05-11T02:55:40.117Z,1.70
2019-05-11T02:58:09.767Z,1.60
2019-05-11T03:00:43.929Z,1.90
2019-05-11T03:03:13.352Z,1.53
2019-05-11T03:05:42.511Z,1.50
2019-05-11T03:08:11.619Z,1.70
2019-05-11T03:10:40.699Z,1.80
2019-05-11T03:13:09.705Z,1.70
2019-05-11T03:15:38.763Z,1.87
2019-05-11T03:18:07.679Z,1.83
2019-05-11T03:20:36.529Z,1.80
2019-05-11T03:23:05.542Z,1.67
2019-05-11T03:25:34.493Z,1.60
2019-05-11T03:28:03.345Z,1.80
2019-05-11T03:30:32.269Z,1.60
2019-05-11T03:33:01.148Z,1.70
2019-05-11T03:35:30.410Z,2.03
2019-05-11T03:37:59.692Z,1.80
2019-05-11T03:40:28.598Z,2.13
2019-05-11T03:42:57.466Z,1.60
2019-05-11T03:45:26.413Z,1.60
2019-05-11T03:47:55.444Z,1.60
2019-05-11T03:50:24.425Z,1.57
2019-05-11T03:52:53.273Z,1.97
2019-05-11T03:55:22.113Z,1.97
2019-05-11T03:57:51.037Z,1.70
2019-05-11T04:00:20.934Z,1.97
2019-05-11T04:02:49.860Z,1.70
2019-05-11T04:05:18.769Z,1.60
2019-05-11T04:07:48.456Z,1.87
2019-05-11T04:10:17.444Z,2.10
2019-05-11T04:12:46.291Z,1.70
2019-05-11T04:15:17.140Z,1.50
2019-05-11T04:17:46.026Z,1.73
2019-05-11T04:20:15.450Z,1.80
2019-05-11T04:22:44.302Z,2.03
2019-05-11T04:25:13.850Z,1.80
2019-05-11T04:27:43.050Z,1.97
2019-05-11T04:30:12.542Z,1.80
2019-05-11T04:32:41.482Z,2.00
2019-05-11T04:35:10.484Z,1.80
2019-05-11T04:37:39.338Z,1.60
2019-05-11T04:40:08.534Z,1.90
2019-05-11T04:42:53.476Z,1.53
2019-05-11T04:45:08.597Z,2.20
2019-05-11T04:47:37.459Z,2.13
2019-05-11T04:50:06.884Z,2.37
2019-05-11T04:52:35.816Z,1.80
2019-05-11T04:55:05.196Z,1.87
2019-05-11T04:57:34.083Z,1.93
2019-05-11T05:00:03.018Z,1.73
2019-05-11T05:02:31.927Z,1.57
2019-05-11T05:05:01.136Z,1.90
2019-05-11T05:07:29.989Z,2.40
2019-05-11T05:09:59.217Z,1.90
2019-05-11T05:12:28.508Z,1.70
2019-05-11T05:14:57.517Z,1.93
2019-05-11T05:17:26.457Z,2.30
2019-05-11T05:19:55.306Z,1.90
2019-05-11T05:22:27.717Z,1.50
2019-05-11T05:24:54.809Z,1.67
2019-05-11T05:27:23.672Z,1.70
2019-05-11T05:29:52.517Z,1.83
2019-05-11T05:32:21.444Z,1.73
2019-05-11T05:34:50.602Z,1.60
2019-05-11T05:37:19.463Z,1.93
2019-05-11T05:39:48.689Z,1.47
2019-05-11T05:42:17.621Z,1.60
2019-05-11T05:44:46.470Z,1.83
2019-05-11T05:47:15.419Z,1.50
2019-05-11T05:49:44.284Z,1.57
2019-05-11T05:52:13.521Z,1.67
2019-05-11T05:54:42.745Z,1.47
2019-05-11T05:57:11.665Z,1.40
2019-05-11T05:59:40.602Z,1.67
2019-05-11T06:02:09.817Z,1.70
2019-05-11T06:04:39.034Z,1.97
2019-05-11T06:07:08.356Z,1.63
2019-05-11T06:09:37.336Z,1.87
2019-05-11T06:12:06.419Z,1.67
2019-05-11T06:14:35.283Z,1.60
2019-05-11T06:17:04.350Z,1.53
2019-05-11T06:19:33.684Z,1.73
2019-05-11T06:22:02.635Z,1.43
2019-05-11T06:24:31.646Z,1.43
2019-05-11T06:27:00.518Z,1.50
2019-05-11T06:29:29.382Z,1.43
2019-05-11T06:31:58.557Z,1.80
2019-05-11T06:34:27.421Z,1.40
2019-05-11T06:36:56.649Z,1.50
2019-05-11T06:39:25.866Z,1.50
2019-05-11T06:41:54.712Z,1.47
2019-05-11T06:44:23.933Z,1.23
2019-05-11T06:46:53.154Z,1.83
2019-05-11T06:49:22.019Z,1.33
2019-05-11T06:51:51.022Z,1.37
2019-05-11T06:54:19.885Z,1.37
2019-05-11T06:56:49.128Z,1.50
2019-05-11T06:59:18.049Z,1.17
2019-05-11T07:01:46.897Z,1.47
2019-05-11T07:04:15.901Z,1.47
2019-05-11T07:06:54.716Z,1.30
2019-05-11T07:09:24.157Z,1.10
2019-05-11T07:11:53.382Z,0.90
2019-05-11T07:14:24.584Z,1.10
2019-05-11T07:16:53.517Z,1.50
2019-05-11T07:19:22.401Z,1.70
2019-05-11T07:21:51.533Z,1.50
2019-05-11T07:24:21.018Z,1.30
2019-05-11T07:26:56.809Z,1.20
2019-05-11T07:29:26.100Z,1.20
2019-05-11T07:31:54.958Z,1.30
2019-05-11T07:34:23.817Z,1.30
2019-05-11T07:36:52.970Z,0.90
2019-05-11T07:39:22.304Z,1.00
2019-05-11T07:41:51.349Z,1.30
2019-05-11T07:44:33.953Z,1.30
2019-05-11T07:46:50.921Z,1.20
2019-05-11T07:49:23.354Z,1.33
2019-05-11T07:51:50.896Z,1.10
2019-05-11T07:54:20.125Z,1.20
2019-05-11T07:56:48.960Z,1.07
2019-05-11T07:59:18.447Z,0.97
2019-05-11T08:01:48.015Z,0.90
2019-05-11T08:04:18.345Z,1.00
2019-05-11T08:06:48.060Z,0.90
2019-05-11T08:09:18.637Z,1.50
2019-05-11T08:11:47.914Z,1.00
2019-05-11T08:14:18.334Z,1.20
2019-05-11T08:16:48.134Z,1.23
2019-05-11T08:19:18.545Z,0.90
2019-05-11T08:21:48.191Z,1.00
2019-05-11T08:24:18.095Z,1.10
2019-05-11T08:26:48.064Z,1.00
2019-05-11T08:29:18.549Z,0.83
2019-05-11T08:31:48.765Z,1.00
2019-05-11T08:34:18.121Z,0.90
2019-05-11T08:36:48.053Z,0.80
2019-05-11T08:39:18.219Z,1.00
2019-05-11T08:41:48.785Z,1.00
2019-05-11T08:44:18.335Z,0.90
2019-05-11T08:46:47.884Z,0.93
2019-05-11T08:49:19.052Z,0.70
2019-05-11T08:51:47.908Z,0.97
2019-05-11T08:54:18.287Z,0.80
2019-05-11T08:56:48.622Z,0.90
2019-05-11T08:59:18.708Z,1.00
2019-05-11T09:01:48.388Z,0.80
2019-05-11T09:04:18.217Z,0.90
2019-05-11T09:06:47.948Z,1.10
2019-05-11T09:09:18.163Z,0.80
2019-05-11T09:11:48.119Z,1.00
2019-05-11T09:14:18.879Z,1.00
2019-05-11T09:16:48.896Z,1.00
2019-05-11T09:19:17.984Z,1.00
2019-05-11T09:21:48.170Z,1.00
2019-05-11T09:24:18.983Z,0.87
2019-05-11T09:26:48.086Z,0.87
2019-05-11T09:29:17.963Z,0.90
2019-05-11T09:31:48.713Z,1.10
2019-05-11T09:34:18.230Z,1.00
2019-05-11T09:36:48.001Z,1.47
2019-05-11T09:39:17.703Z,1.00
2019-05-11T09:41:48.828Z,1.00
2019-05-11T09:44:18.373Z,1.30
2019-05-11T09:46:47.877Z,1.13
2019-05-11T09:49:18.562Z,0.83
2019-05-11T09:51:48.574Z,1.10
2019-05-11T09:54:18.298Z,1.07
2019-05-11T09:56:48.670Z,1.47
2019-05-11T09:59:18.067Z,1.23
2019-05-11T10:01:48.329Z,1.27
2019-05-11T10:04:18.163Z,1.10
2019-05-11T10:06:48.114Z,1.13
2019-05-11T10:09:18.654Z,1.00
2019-05-11T10:11:48.091Z,1.00
2019-05-11T10:14:18.711Z,0.90
2019-05-11T10:16:49.146Z,0.90
2019-05-11T10:19:18.185Z,0.90
2019-05-11T10:21:48.658Z,1.00
2019-05-11T10:24:17.902Z,1.10
2019-05-11T10:26:48.659Z,1.20
2019-05-11T10:29:18.439Z,1.10
2019-05-11T10:31:48.095Z,1.20
2019-05-11T10:34:17.927Z,1.07
2019-05-11T10:36:48.644Z,1.20
2019-05-11T10:39:18.651Z,1.10
2019-05-11T10:41:48.127Z,1.03
2019-05-11T10:44:18.751Z,0.90
2019-05-11T10:46:48.440Z,1.00
2019-05-11T10:49:18.458Z,1.23
2019-05-11T10:51:48.598Z,0.97
2019-05-11T10:54:18.713Z,0.90
2019-05-11T10:56:48.235Z,1.00
2019-05-11T10:59:18.765Z,1.00
2019-05-11T11:01:48.479Z,1.20
2019-05-11T11:04:18.439Z,0.90
2019-05-11T11:06:48.525Z,1.07
2019-05-11T11:09:17.917Z,0.90
2019-05-11T11:11:48.791Z,1.00
2019-05-11T11:14:18.206Z,1.03
2019-05-11T11:16:47.915Z,0.93
2019-05-11T11:19:18.351Z,0.90
2019-05-11T11:21:48.742Z,0.90
2019-05-11T11:24:18.323Z,0.97
2019-05-11T11:26:48.658Z,1.20
2019-05-11T11:29:18.065Z,1.10
2019-05-11T11:31:48.148Z,0.80
2019-05-11T11:34:18.765Z,0.90
2019-05-11T11:36:48.267Z,0.90
2019-05-11T11:39:18.744Z,0.90
2019-05-11T11:41:48.549Z,0.90
2019-05-11T11:44:18.638Z,1.03
2019-05-11T11:46:54.713Z,0.80
2019-05-11T11:49:18.825Z,0.87
2019-05-11T11:51:48.548Z,0.80
2019-05-11T11:54:18.175Z,0.80
2019-05-11T11:56:48.554Z,0.97
2019-05-11T11:59:17.947Z,1.03
2019-05-11T12:01:48.751Z,0.93
2019-05-11T12:04:18.825Z,0.80
2019-05-11T12:06:49.024Z,0.70
2019-05-11T12:09:18.367Z,1.17
2019-05-11T12:11:48.640Z,1.07
2019-05-11T12:14:18.727Z,0.70
2019-05-11T12:16:49.283Z,0.80
2019-05-11T12:19:18.914Z,0.90
2019-05-11T12:21:48.352Z,0.80
2019-05-11T12:24:18.703Z,0.80
2019-05-11T12:26:48.144Z,0.93
2019-05-11T12:29:18.790Z,1.00
2019-05-11T12:31:48.618Z,0.80
2019-05-11T12:34:18.194Z,1.00
2019-05-11T12:36:48.032Z,0.83
2019-05-11T12:39:19.138Z,0.90
2019-05-11T12:41:48.339Z,0.90
2019-05-11T12:44:18.757Z,0.70
2019-05-11T12:46:48.832Z,0.70
2019-05-11T12:49:18.722Z,0.80
2019-05-11T12:51:48.748Z,0.80
2019-05-11T12:54:18.769Z,0.80
2019-05-11T12:56:48.953Z,0.80
2019-05-11T12:59:18.939Z,0.70
2019-05-11T13:01:48.606Z,0.63
2019-05-11T13:04:18.292Z,0.90
2019-05-11T13:06:48.075Z,0.90
2019-05-11T13:09:18.299Z,1.00
2019-05-11T13:11:48.198Z,0.90
2019-05-11T13:14:19.342Z,0.60
2019-05-11T13:16:48.461Z,0.63
2019-05-11T13:19:17.715Z,0.63
2019-05-11T13:21:48.664Z,0.70
2019-05-11T13:24:18.699Z,0.70
2019-05-11T13:26:48.650Z,0.70
2019-05-11T13:29:18.301Z,0.50
2019-05-11T13:31:48.630Z,0.60
2019-05-11T13:34:18.127Z,0.60
2019-05-11T13:36:48.947Z,0.70
2019-05-11T13:39:18.181Z,0.70
2019-05-11T13:41:47.724Z,0.60
2019-05-11T13:44:18.600Z,0.50
2019-05-11T13:46:48.133Z,2.20
2019-05-11T13:49:18.002Z,0.60
2019-05-11T13:51:48.166Z,0.60
2019-05-11T13:54:18.528Z,0.60
2019-05-11T13:56:48.306Z,0.70
2019-05-11T13:59:18.797Z,0.60
2019-05-11T14:01:48.211Z,0.60
2019-05-11T14:04:18.169Z,0.57
2019-05-11T14:06:48.166Z,0.60
2019-05-11T14:09:18.402Z,0.60
2019-05-11T14:11:47.955Z,0.60
2019-05-11T14:14:18.422Z,0.53
2019-05-11T14:16:48.530Z,0.50
2019-05-11T14:19:18.185Z,0.50
2019-05-11T14:21:48.949Z,0.50
2019-05-11T14:24:18.435Z,0.53
2019-05-11T14:26:48.797Z,0.57
2019-05-11T14:29:17.984Z,0.60
2019-05-11T14:31:48.843Z,0.60
2019-05-11T14:34:18.207Z,0.50
2019-05-11T14:36:48.202Z,0.60
2019-05-11T14:39:19.021Z,0.50
2019-05-11T14:41:48.751Z,0.60
2019-05-11T14:44:18.231Z,0.53
2019-05-11T14:46:47.909Z,0.57
2019-05-11T14:49:18.467Z,0.50
2019-05-11T14:51:48.539Z,0.50
2019-05-11T14:54:18.814Z,0.67
2019-05-11T14:56:48.505Z,0.60
2019-05-11T14:59:18.411Z,0.60
2019-05-11T15:01:49.067Z,0.67
2019-05-11T15:04:18.251Z,0.60
2019-05-11T15:06:49.041Z,0.60
2019-05-11T15:09:18.420Z,0.50
2019-05-11T15:11:48.188Z,0.60
2019-05-11T15:14:19.654Z,0.60
2019-05-11T15:16:48.738Z,0.50
2019-05-11T15:19:18.501Z,0.57
2019-05-11T15:21:47.753Z,0.50
2019-05-11T15:24:18.478Z,0.50
2019-05-11T15:26:48.630Z,0.53
2019-05-11T15:29:18.784Z,0.63
2019-05-11T15:31:48.582Z,0.50
2019-05-11T15:34:18.662Z,0.60
2019-05-11T15:36:48.999Z,0.60
2019-05-11T15:39:18.820Z,0.50
2019-05-11T15:41:48.205Z,0.53
2019-05-11T15:44:18.242Z,0.60
2019-05-11T15:46:47.947Z,0.97
2019-05-11T15:49:18.030Z,0.60
2019-05-11T15:51:48.926Z,0.50
2019-05-11T15:54:18.508Z,0.60
2019-05-11T15:56:47.610Z,0.50
2019-05-11T15:59:16.529Z,0.60
2019-05-11T16:01:48.774Z,0.70
2019-05-11T16:04:18.092Z,0.60
2019-05-11T16:06:47.252Z,0.50
2019-05-11T16:09:18.221Z,0.53
2019-05-11T16:11:47.841Z,0.70
2019-05-11T16:14:16.904Z,0.60
2019-05-11T16:16:47.943Z,0.67
2019-05-11T16:19:19.108Z,0.70
2019-05-11T16:21:47.657Z,0.60
2019-05-11T16:24:16.657Z,0.50
2019-05-11T16:26:47.541Z,0.67
2019-05-11T16:29:18.539Z,0.60
2019-05-11T16:31:48.289Z,0.60
2019-05-11T16:34:18.439Z,0.70
2019-05-11T16:36:48.080Z,0.60
2019-05-11T16:39:18.698Z,0.60
2019-05-11T16:41:48.677Z,0.60
2019-05-11T16:44:18.458Z,0.60
2019-05-11T16:46:50.640Z,0.70
2019-05-11T16:49:26.107Z,0.80
2019-05-11T16:51:48.910Z,0.87
2019-05-11T16:54:17.780Z,0.70
2019-05-11T16:56:48.681Z,0.70
2019-05-11T16:59:18.324Z,0.80
2019-05-11T17:01:48.272Z,0.70
2019-05-11T17:04:17.362Z,0.70
2019-05-11T17:06:48.529Z,0.90
2019-05-11T17:09:17.987Z,0.83
2019-05-11T17:11:48.998Z,0.80
2019-05-11T17:14:18.731Z,0.97
2019-05-11T17:16:48.300Z,1.23
2019-05-11T17:19:18.374Z,1.40
2019-05-11T17:21:47.565Z,1.17
2019-05-11T17:24:16.541Z,1.00
2019-05-11T17:26:47.689Z,1.20
2019-05-11T17:29:18.614Z,1.20
2019-05-11T17:31:48.489Z,1.17
2019-05-11T17:34:20.242Z,1.00
2019-05-11T17:36:48.109Z,1.10
2019-05-11T17:39:18.819Z,1.30
2019-05-11T17:41:47.998Z,0.93
2019-05-11T17:44:18.503Z,0.90
2019-05-11T17:46:47.546Z,1.00
2019-05-11T17:49:18.323Z,1.00
2019-05-11T17:51:48.435Z,0.90
2019-05-11T17:54:18.048Z,1.10
2019-05-11T17:56:48.345Z,1.13
2019-05-11T17:59:19.615Z,1.20
2019-05-11T18:01:48.537Z,1.17
2019-05-11T18:04:18.399Z,1.00
2019-05-11T18:06:47.607Z,1.20
2019-05-11T18:09:18.221Z,1.17
2019-05-11T18:11:48.259Z,1.20
2019-05-11T18:14:17.233Z,1.00
2019-05-11T18:16:48.050Z,1.10
2019-05-11T18:19:18.959Z,1.10
2019-05-11T18:21:48.737Z,1.53
2019-05-11T18:24:18.002Z,1.13
2019-05-11T18:26:48.799Z,1.13
2019-05-11T18:29:18.293Z,1.30
2019-05-11T18:31:48.610Z,1.30
2019-05-11T18:34:17.935Z,1.10
2019-05-11T18:36:48.578Z,1.30
2019-05-11T18:39:18.596Z,1.23
2019-05-11T18:41:48.418Z,1.30
2019-05-11T18:44:18.763Z,1.10
2019-05-11T18:46:48.087Z,1.30
2019-05-11T18:49:17.914Z,1.50
2019-05-11T18:51:48.384Z,1.50
2019-05-11T18:54:19.140Z,1.90
2019-05-11T18:56:48.937Z,1.60
2019-05-11T18:59:19.588Z,1.50
2019-05-11T19:01:49.309Z,1.70
2019-05-11T19:04:18.518Z,1.70
2019-05-11T19:06:48.513Z,2.10
2019-05-11T19:09:18.166Z,2.17
2019-05-11T19:11:48.956Z,2.37
2019-05-11T19:14:17.908Z,2.70
2019-05-11T19:16:49.032Z,3.07
2019-05-11T19:19:18.301Z,3.33
2019-05-11T19:21:48.168Z,2.87
2019-05-11T19:24:18.982Z,2.80
2019-05-11T19:26:51.084Z,3.00
2019-05-11T19:29:18.996Z,3.63
2019-05-11T19:31:48.321Z,2.97
2019-05-11T19:34:18.091Z,3.57
2019-05-11T19:36:48.621Z,3.80
2019-05-11T19:39:19.351Z,3.43
2019-05-11T19:41:48.740Z,4.30
2019-05-11T19:44:18.722Z,4.20
2019-05-11T19:46:48.137Z,4.53
2019-05-11T19:49:18.963Z,3.80
2019-05-11T19:51:48.676Z,3.53
2019-05-11T19:54:18.606Z,3.90
2019-05-11T19:56:48.026Z,4.90
2019-05-11T19:59:17.111Z,4.20
2019-05-11T20:01:46.506Z,4.70
2019-05-11T20:04:16.156Z,5.10
2019-05-11T20:06:45.097Z,5.00
2019-05-11T20:09:14.216Z,4.23
2019-05-11T20:11:43.735Z,4.10
2019-05-11T20:14:12.574Z,4.30
2019-05-11T20:16:41.417Z,5.20
2019-05-11T20:19:10.248Z,4.70
2019-05-11T20:21:39.101Z,5.10
2019-05-11T20:24:08.603Z,4.43
2019-05-11T20:26:38.079Z,5.23
2019-05-11T20:29:08.152Z,5.10
2019-05-11T20:31:37.332Z,6.03
2019-05-11T20:34:06.498Z,5.20
2019-05-11T20:36:35.429Z,5.80
2019-05-11T20:39:06.779Z,6.00
2019-05-11T20:41:38.482Z,6.10
2019-05-11T20:44:08.696Z,6.30
2019-05-11T20:46:38.521Z,6.47
2019-05-11T20:49:07.426Z,6.87
2019-05-11T20:51:37.217Z,5.97
2019-05-11T20:54:08.728Z,6.40
2019-05-11T20:56:38.799Z,6.30
2019-05-11T20:59:07.991Z,7.43
2019-05-11T21:01:38.687Z,7.47
2019-05-11T21:04:08.459Z,9.00
2019-05-11T21:06:38.061Z,8.03
2019-05-11T21:09:07.783Z,7.80
2019-05-11T21:11:36.693Z,8.00
2019-05-11T21:14:08.028Z,8.70
2019-05-11T21:16:38.706Z,8.60
2019-05-11T21:19:08.208Z,9.57
2019-05-11T21:21:49.512Z,9.03
2019-05-11T21:24:08.580Z,9.00
2019-05-11T21:26:38.534Z,8.80
2019-05-11T21:29:08.537Z,8.90
2019-05-11T21:31:40.585Z,9.20
2019-05-11T21:34:08.776Z,9.73
2019-05-11T21:36:38.021Z,10.53
2019-05-11T21:39:09.461Z,9.57
2019-05-11T21:41:38.787Z,10.63
2019-05-11T21:44:08.307Z,10.50
2019-05-11T21:46:38.786Z,10.03
2019-05-11T21:49:07.986Z,10.37
2019-05-11T21:51:38.089Z,10.70
2019-05-11T21:54:07.182Z,10.73
2019-05-11T21:56:38.056Z,10.90
2019-05-11T21:59:07.964Z,10.60
2019-05-11T22:01:38.603Z,11.30
2019-05-11T22:04:08.412Z,10.83
2019-05-11T22:06:39.066Z,11.80
2019-05-11T22:09:08.760Z,11.67
2019-05-11T22:11:38.196Z,10.73
2019-05-11T22:14:08.268Z,10.90
2019-05-11T22:16:38.782Z,11.30
2019-05-11T22:19:08.963Z,11.90
2019-05-11T22:21:38.769Z,12.00
2019-05-11T22:24:08.674Z,11.60
2019-05-11T22:26:38.157Z,11.73
2019-05-11T22:29:07.830Z,12.77
2019-05-11T22:31:38.273Z,12.80
2019-05-11T22:34:08.939Z,12.17
2019-05-11T22:36:38.513Z,11.40
2019-05-11T22:39:08.467Z,11.70
2019-05-11T22:41:39.657Z,11.53
2019-05-11T22:44:10.987Z,12.70
2019-05-11T22:46:39.224Z,12.67
2019-05-11T22:49:08.443Z,12.23
2019-05-11T22:51:37.774Z,11.80
2019-05-11T22:54:08.053Z,11.10
2019-05-11T22:56:38.001Z,12.00
2019-05-11T22:59:08.293Z,12.60
2019-05-11T23:01:37.806Z,13.00
2019-05-11T23:04:07.113Z,13.07
2019-05-11T23:06:40.346Z,13.50
2019-05-11T23:09:07.909Z,12.50
2019-05-11T23:11:37.954Z,13.53
2019-05-11T23:14:09.776Z,13.27
2019-05-11T23:16:37.942Z,12.70
2019-05-11T23:19:09.450Z,14.00
2019-05-11T23:21:38.834Z,12.47
2019-05-11T23:24:07.996Z,12.67
2019-05-11T23:26:38.605Z,11.90
2019-05-11T23:29:08.209Z,13.00
2019-05-11T23:31:38.324Z,12.20
2019-05-11T23:34:08.355Z,11.37
2019-05-11T23:36:38.295Z,11.20
2019-05-11T23:39:08.990Z,11.50
2019-05-11T23:41:38.167Z,12.67
2019-05-11T23:44:08.890Z,11.27
2019-05-11T23:46:38.624Z,12.97
2019-05-11T23:49:08.814Z,11.77
2019-05-11T23:51:38.651Z,11.87
2019-05-11T23:54:08.066Z,13.20
2019-05-11T23:56:38.659Z,12.47
2019-05-11T23:59:08.296Z,12.50
